createdAt,value
2022-11-29T00:01:15.230Z,101037.89
2022-11-29T00:07:39.569Z,101031.48
2022-11-29T00:14:04.013Z,101037.49
2022-11-29T00:20:28.288Z,101037.05
2022-11-29T00:26:52.580Z,101035.67
2022-11-29T00:33:16.902Z,101038.52
2022-11-29T00:39:41.444Z,101041.30
2022-11-29T00:46:06.006Z,101038.61
2022-11-29T00:52:30.458Z,101033.48
2022-11-29T00:58:54.719Z,101029.84
2022-11-29T01:05:19.064Z,101023.98
2022-11-29T01:11:46.024Z,101022.19
2022-11-29T01:18:10.576Z,101017.64
2022-11-29T01:24:33.939Z,101013.79
2022-11-29T01:30:58.291Z,101008.41
2022-11-29T01:37:22.577Z,101006.34
2022-11-29T01:43:46.966Z,101006.16
2022-11-29T01:50:14.119Z,101004.42
2022-11-29T01:56:38.556Z,100997.38
2022-11-29T02:03:11.831Z,100990.52
2022-11-29T02:09:39.356Z,100996.09
2022-11-29T02:16:09.820Z,100996.95
2022-11-29T02:22:43.582Z,100994.16
2022-11-29T02:29:25.801Z,100994.73
2022-11-29T02:35:56.144Z,100999.38
2022-11-29T02:42:34.427Z,101003.03
2022-11-29T02:49:16.838Z,101007.95
2022-11-29T02:55:49.940Z,101007.56
2022-11-29T03:02:14.405Z,101006.02
2022-11-29T03:08:57.310Z,101012.55
2022-11-29T03:15:40.301Z,101015.02
2022-11-29T03:22:13.498Z,101018.94
2022-11-29T03:28:36.576Z,101019.73
2022-11-29T03:35:10.080Z,101020.85
2022-11-29T03:41:49.819Z,101021.80
2022-11-29T03:48:14.458Z,101024.11
2022-11-29T03:54:38.868Z,101025.17
2022-11-29T04:01:06.858Z,101027.80
2022-11-29T04:07:39.949Z,101033.23
2022-11-29T04:14:07.500Z,101038.80
2022-11-29T04:20:41.240Z,101040.56
2022-11-29T04:27:20.637Z,101043.16
2022-11-29T04:33:49.815Z,101048.40
2022-11-29T04:40:38.280Z,101057.36
2022-11-29T04:47:05.560Z,101062.45
2022-11-29T04:53:38.926Z,101064.71
2022-11-29T05:00:11.384Z,101070.45
2022-11-29T05:06:33.657Z,101068.66
2022-11-29T05:13:03.911Z,101069.17
2022-11-29T05:19:26.777Z,101076.19
2022-11-29T05:25:57.369Z,101081.55
2022-11-29T05:32:20.553Z,101084.83
2022-11-29T05:38:54.490Z,101094.01
2022-11-29T05:45:40.365Z,101101.89
2022-11-29T05:52:07.665Z,101107.64
2022-11-29T05:58:37.792Z,101114.48
2022-11-29T06:05:01.050Z,101120.04
2022-11-29T06:11:37.686Z,101123.73
2022-11-29T06:18:10.483Z,101128.94
2022-11-29T06:24:37.538Z,101135.16
2022-11-29T06:31:01.942Z,101138.54
2022-11-29T06:37:29.216Z,101141.05
2022-11-29T06:43:54.179Z,101144.41
2022-11-29T06:50:24.527Z,101150.11
2022-11-29T06:57:10.124Z,101155.79
2022-11-29T07:03:55.857Z,101156.81
2022-11-29T07:10:20.242Z,101162.64
2022-11-29T07:16:53.165Z,101165.13
2022-11-29T07:23:29.342Z,101174.32
2022-11-29T07:29:53.785Z,101176.90
2022-11-29T07:36:33.464Z,101182.70
2022-11-29T07:43:10.310Z,101181.40
2022-11-29T07:49:34.579Z,101188.52
2022-11-29T07:55:58.982Z,101188.92
2022-11-29T08:02:23.364Z,101185.70
2022-11-29T08:08:47.782Z,101185.63
2022-11-29T08:15:12.255Z,101185.63
2022-11-29T08:21:39.609Z,101188.45
2022-11-29T08:28:03.920Z,101194.99
2022-11-29T08:34:28.325Z,101193.36
2022-11-29T08:40:52.842Z,101197.06
2022-11-29T08:47:15.702Z,101193.40
2022-11-29T08:53:38.510Z,101193.69
2022-11-29T09:00:02.808Z,101195.44
2022-11-29T09:06:27.183Z,101192.50
2022-11-29T09:12:51.612Z,101191.45
2022-11-29T09:19:16.061Z,101189.38
2022-11-29T09:25:40.374Z,101186.83
2022-11-29T09:32:04.779Z,101186.83
2022-11-29T09:38:29.256Z,101182.84
2022-11-29T09:44:53.584Z,101185.65
2022-11-29T09:51:30.001Z,101180.55
2022-11-29T09:57:54.395Z,101177.13
2022-11-29T10:04:24.563Z,101178.05
2022-11-29T10:10:49.134Z,101177.89
2022-11-29T10:17:19.338Z,101173.48
2022-11-29T10:23:43.704Z,101168.79
2022-11-29T10:30:07.321Z,101168.25
2022-11-29T10:36:25.446Z,101170.52
2022-11-29T10:43:10.911Z,101168.70
2022-11-29T10:49:35.293Z,101179.14
2022-11-29T10:55:59.678Z,101182.42
2022-11-29T11:02:24.000Z,101182.67
2022-11-29T11:08:48.346Z,101184.25
2022-11-29T11:15:18.490Z,101182.67
2022-11-29T11:21:42.878Z,101179.49
2022-11-29T11:28:12.929Z,101178.45
2022-11-29T11:34:19.949Z,101179.20
2022-11-29T11:40:59.417Z,101185.02
2022-11-29T11:47:26.341Z,101190.08
2022-11-29T11:54:05.530Z,101199.80
2022-11-29T12:01:01.861Z,101203.05
2022-11-29T12:07:38.723Z,101202.30
2022-11-29T12:14:07.238Z,101198.67
2022-11-29T12:20:29.727Z,101198.40
2022-11-29T12:27:03.097Z,101202.98
2022-11-29T12:33:27.556Z,101205.95
2022-11-29T12:40:04.058Z,101210.36
2022-11-29T12:46:31.403Z,101208.56
2022-11-29T12:53:10.867Z,101208.96
2022-11-29T12:59:38.258Z,101206.61
2022-11-29T13:06:20.849Z,101209.51
2022-11-29T13:13:06.819Z,101213.55
2022-11-29T13:19:34.074Z,101224.25
2022-11-29T13:26:04.620Z,101226.40
2022-11-29T13:32:29.051Z,101233.94
2022-11-29T13:38:54.717Z,101239.88
2022-11-29T13:45:48.857Z,101250.81
2022-11-29T13:52:16.193Z,101252.94
2022-11-29T13:58:52.270Z,101252.48
2022-11-29T14:05:22.471Z,101255.27
2022-11-29T14:11:49.503Z,101260.52
2022-11-29T14:18:32.120Z,101258.78
2022-11-29T14:25:35.030Z,101256.52
2022-11-29T14:31:55.963Z,101253.94
2022-11-29T14:38:38.325Z,101257.64
2022-11-29T14:45:01.661Z,101260.84
2022-11-29T14:51:50.669Z,101257.98
2022-11-29T14:58:29.266Z,101260.58
2022-11-29T15:04:53.649Z,101262.23
2022-11-29T15:11:20.962Z,101260.80
2022-11-29T15:17:57.121Z,101264.74
2022-11-29T15:24:28.036Z,101271.06
2022-11-29T15:30:59.371Z,101269.49
2022-11-29T15:37:23.672Z,101273.88
2022-11-29T15:43:50.824Z,101276.40
2022-11-29T15:50:27.504Z,101280.19
2022-11-29T15:56:54.886Z,101285.81
2022-11-29T16:03:31.336Z,101294.54
2022-11-29T16:10:13.711Z,101291.70
2022-11-29T16:16:52.972Z,101288.04
2022-11-29T16:23:23.288Z,101289.86
2022-11-29T16:29:47.698Z,101292.23
2022-11-29T16:36:14.884Z,101291.77
2022-11-29T16:42:41.839Z,101300.21
2022-11-29T16:49:06.261Z,101306.73
2022-11-29T16:55:30.548Z,101312.50
2022-11-29T17:02:03.565Z,101318.65
2022-11-29T17:08:27.968Z,101321.70
2022-11-29T17:14:52.302Z,101324.13
2022-11-29T17:21:16.710Z,101327.38
2022-11-29T17:27:41.058Z,101327.02
2022-11-29T17:34:05.517Z,101327.23
2022-11-29T17:40:30.174Z,101334.98
2022-11-29T17:46:54.440Z,101332.95
2022-11-29T17:53:18.874Z,101334.17
2022-11-29T17:59:43.475Z,101337.44
2022-11-29T18:06:08.193Z,101338.36
2022-11-29T18:12:32.514Z,101339.58
2022-11-29T18:18:51.637Z,101343.15
2022-11-29T18:25:38.043Z,101342.46
2022-11-29T18:32:03.215Z,101343.46
2022-11-29T18:38:27.598Z,101341.02
2022-11-29T18:44:57.453Z,101344.17
2022-11-29T18:51:23.195Z,101339.67
2022-11-29T18:57:47.622Z,101339.95
2022-11-29T19:04:12.012Z,101346.45
2022-11-29T19:10:36.412Z,101352.87
2022-11-29T19:17:00.814Z,101359.33
2022-11-29T19:23:25.229Z,101363.67
2022-11-29T19:29:49.856Z,101368.90
2022-11-29T19:36:14.500Z,101369.95
2022-11-29T19:42:38.784Z,101376.27
2022-11-29T19:49:03.298Z,101379.35
2022-11-29T19:55:27.669Z,101385.38
2022-11-29T20:01:54.808Z,101387.14
2022-11-29T20:08:21.454Z,101390.40
2022-11-29T20:14:46.212Z,101390.55
2022-11-29T20:21:10.772Z,101393.50
2022-11-29T20:27:35.321Z,101395.45
2022-11-29T20:33:59.760Z,101397.71
2022-11-29T20:40:27.022Z,101401.06
2022-11-29T20:46:51.518Z,101405.57
2022-11-29T20:53:18.422Z,101408.77
2022-11-29T20:59:42.753Z,101406.27
2022-11-29T21:06:07.281Z,101405.81
2022-11-29T21:12:31.832Z,101405.11
2022-11-29T21:18:59.348Z,101404.53
2022-11-29T21:25:26.392Z,101402.73
2022-11-29T21:31:50.802Z,101408.48
2022-11-29T21:38:15.331Z,101411.53
2022-11-29T21:44:39.707Z,101416.27
2022-11-29T21:51:04.035Z,101423.67
2022-11-29T21:57:28.324Z,101421.92
2022-11-29T22:03:52.583Z,101424.64
2022-11-29T22:10:16.645Z,101425.14
2022-11-29T22:16:46.831Z,101426.66
2022-11-29T22:23:11.230Z,101434.70
2022-11-29T22:29:35.610Z,101437.80
2022-11-29T22:35:53.613Z,101441.06
2022-11-29T22:42:17.914Z,101442.89
2022-11-29T22:48:42.228Z,101438.59
2022-11-29T22:55:06.644Z,101431.05
2022-11-29T23:01:31.023Z,101427.35
2022-11-29T23:07:55.530Z,101424.90
2022-11-29T23:14:19.882Z,101425.01
2022-11-29T23:20:44.404Z,101421.69
2022-11-29T23:27:08.689Z,101416.48
2022-11-29T23:33:33.032Z,101415.32
2022-11-29T23:39:57.522Z,101410.58
2022-11-29T23:46:21.767Z,101408.20
2022-11-29T23:52:46.132Z,101405.54
2022-11-29T23:59:10.566Z,101409.54
